»·PEaware :: WAT234 KHAF-KSMX

WAT234 :: KHAF-KSMX

FLIGHT INFORMATION

Flight Status: Arrived
Operator:
Walker Air Transport
More flights by this operator :: More flights under this callsign
Pilot: Eduardo Elias G. (24838)
Aircraft: SOCATA TBM-900
(TBM9)
More flights by this aircraft type
Origin: KHAF Half Moon Bay
United States
Destination: KSMX Santa Maria Pub/Capt Hancock
United States
More flights between these airports :: More routes between these airports
Route: TAILS V27 MQO
File this flight plan on PilotEdge
Remarks:
Altitude:
(Current/Filed)
21,000ft
Speed:
(Current/Filed)
280kts
Departed: 27-Aug-20 09:17 PM
Arrived: 27-Aug-20 10:10 PM
Distance/Time
Traveled:
186nm/0:52
Distance/Time
To Go:
Arrived

Flight Plot

Page will automatically refresh every two minutes.

Flight plan parsing failed; only flown route is shown


Map Options




Map Legend


Flown Route
Filed Route
Departure Airport
Arrival Airport
Navaid (VOR, NDB)
Fix

Horizontal Profiles

Position Reports

Time Latitude Longitude Heading Altitude Ground
Speed
27-Aug-20 20:53 37.513875 -122.495862 125 48ft 0kts
27-Aug-20 20:54 37.513875 -122.495862 125 48ft 0kts
27-Aug-20 20:55 37.513875 -122.495862 125 48ft 0kts
27-Aug-20 20:56 37.513875 -122.495862 125 48ft 0kts
27-Aug-20 20:57 37.513875 -122.495862 125 48ft 0kts
27-Aug-20 20:58 37.513875 -122.495862 125 48ft 0kts
27-Aug-20 20:59 37.513875 -122.495862 125 48ft 0kts
27-Aug-20 21:00 37.513875 -122.495862 125 48ft 0kts
27-Aug-20 21:01 37.513875 -122.495862 125 48ft 0kts
27-Aug-20 21:02 37.513875 -122.495862 125 48ft 0kts
27-Aug-20 21:03 37.513875 -122.495862 125 48ft 0kts
27-Aug-20 21:04 37.513875 -122.495862 125 48ft 0kts
27-Aug-20 21:05 37.513875 -122.495862 125 48ft 0kts
27-Aug-20 21:06 37.513875 -122.495862 125 48ft 0kts
27-Aug-20 21:07 37.513875 -122.495862 125 48ft 0kts
27-Aug-20 21:08 37.513875 -122.495862 125 48ft 0kts
27-Aug-20 21:09 37.513875 -122.495862 125 48ft 0kts
27-Aug-20 21:10 37.514707 -122.498291 306 48ft 7kts
27-Aug-20 21:11 37.517761 -122.503647 317 48ft 20kts
27-Aug-20 21:12 37.519150 -122.506217 201 48ft 0kts
27-Aug-20 21:13 37.519150 -122.506217 201 48ft 0kts
27-Aug-20 21:14 37.519150 -122.506217 201 48ft 0kts
27-Aug-20 21:15 37.518544 -122.506815 220 48ft 11kts
27-Aug-20 21:16 37.511698 -122.499672 143 273ft 104kts
27-Aug-20 21:17 37.484153 -122.469605 137 2476ft 134kts
27-Aug-20 21:18 37.456158 -122.436433 137 4812ft 133kts
27-Aug-20 21:19 37.427966 -122.403025 137 7074ft 137kts
27-Aug-20 21:20 37.399570 -122.369646 137 9420ft 137kts
27-Aug-20 21:21 37.369362 -122.335322 137 11797ft 146kts
27-Aug-20 21:22 37.337191 -122.299540 137 14076ft 155kts
27-Aug-20 21:23 37.303498 -122.260807 137 16308ft 164kts
27-Aug-20 21:24 37.268255 -122.219223 137 18347ft 172kts
27-Aug-20 21:25 37.226506 -122.168584 137 18957ft 241kts
27-Aug-20 21:26 37.171023 -122.101978 137 18919ft 277kts
27-Aug-20 21:27 37.103151 -122.053185 172 18928ft 281kts
27-Aug-20 21:28 37.025725 -122.033422 169 19855ft 265kts
27-Aug-20 21:29 36.951946 -122.013443 170 20919ft 266kts
27-Aug-20 21:30 36.886854 -121.995801 170 20925ft 290kts
27-Aug-20 21:31 36.806868 -121.974205 170 20919ft 296kts
27-Aug-20 21:32 36.726223 -121.952467 170 20917ft 298kts
27-Aug-20 21:33 36.642163 -121.929843 170 20918ft 298kts
27-Aug-20 21:34 36.557810 -121.907203 169 20917ft 298kts
27-Aug-20 21:35 36.473603 -121.884644 169 20917ft 298kts
27-Aug-20 21:36 36.399228 -121.831063 146 20918ft 302kts
27-Aug-20 21:37 36.327823 -121.768968 146 20918ft 302kts
27-Aug-20 21:38 36.256271 -121.706949 146 20918ft 302kts
27-Aug-20 21:39 36.184572 -121.644996 148 20916ft 302kts
27-Aug-20 21:40 36.103115 -121.601216 159 20915ft 300kts
27-Aug-20 21:41 36.021135 -121.558442 159 20913ft 300kts
27-Aug-20 21:42 35.939773 -121.516077 159 20904ft 299kts
27-Aug-20 21:43 35.859219 -121.474230 159 20887ft 299kts
27-Aug-20 21:44 35.778564 -121.432426 159 20873ft 298kts
27-Aug-20 21:45 35.697759 -121.390625 159 20874ft 297kts
27-Aug-20 21:46 35.621444 -121.341626 130 20870ft 304kts
27-Aug-20 21:47 35.567608 -121.255225 130 20899ft 303kts
27-Aug-20 21:48 35.513638 -121.169870 130 20898ft 303kts
27-Aug-20 21:49 35.459553 -121.084573 131 20903ft 302kts
27-Aug-20 21:50 35.405839 -121.000056 131 20913ft 302kts
27-Aug-20 21:51 35.356370 -120.922336 132 20198ft 242kts
27-Aug-20 21:52 35.317548 -120.861550 132 18528ft 200kts
27-Aug-20 21:53 35.283697 -120.808678 132 16917ft 192kts
27-Aug-20 21:54 35.252069 -120.759754 139 15594ft 176kts
27-Aug-20 21:55 35.210453 -120.730605 158 14011ft 138kts
27-Aug-20 21:56 35.174670 -120.709101 157 11577ft 141kts
27-Aug-20 21:57 35.138338 -120.687441 158 8808ft 142kts
27-Aug-20 21:58 35.099324 -120.678465 156 5917ft 143kts
27-Aug-20 21:59 35.063620 -120.654145 127 3005ft 152kts
27-Aug-20 22:00 35.038851 -120.620157 135 2315ft 118kts
27-Aug-20 22:01 35.013251 -120.589608 137 2329ft 125kts
27-Aug-20 22:02 34.986584 -120.557784 136 2331ft 134kts
27-Aug-20 22:03 34.959548 -120.525575 136 1691ft 120kts
27-Aug-20 22:04 34.936789 -120.498370 136 1078ft 102kts
27-Aug-20 22:05 34.913645 -120.475188 146 964ft 114kts
27-Aug-20 22:06 34.886653 -120.455975 148 964ft 105kts
27-Aug-20 22:07 34.869026 -120.429810 51 949ft 106kts
27-Aug-20 22:09 34.891217 -120.444022 315 333ft 84kts
27-Aug-20 22:10 34.898916 -120.452251 98 264ft 13kts
27-Aug-20 22:11 34.899103 -120.450956 336 264ft 9kts
27-Aug-20 22:12 34.900552 -120.450221 183 264ft 0kts

Navigation Log

Ident Type
Flight plan parsing failed, navigation log unavailable